Time;durP1;ratioP1;P1;durP2;ratioP2;P2;SDS_P1;SDS_P2;PMS_P1;PMS_P2;Temp;Humidity;BMP_temperature;BMP_pressure;BME280_temperature;BME280_humidity;BME280_pressure;Samples;Min_cycle;Max_cycle;Signal;HPM_P1;HPM_P2
2023/07/04 00:01:51;;;;;;;30.65;8.07;;;;;;;18.37;68.31;96106.38;5070935;28;20040;-74
2023/07/04 00:04:20;;;;;;;40.10;8.60;;;;;;;18.31;67.09;96109.84;5070329;28;20131;-74
2023/07/04 00:06:48;;;;;;;34.92;7.90;;;;;;;18.25;66.96;96101.09;5070147;28;20044;-73
2023/07/04 00:09:14;;;;;;;39.83;8.70;;;;;;;18.19;67.54;96108.13;5069881;28;20088;-74
2023/07/04 00:11:41;;;;;;;39.50;8.57;;;;;;;18.04;67.64;96098.06;5069645;28;20049;-74
2023/07/04 00:14:08;;;;;;;36.88;8.88;;;;;;;18.05;67.85;96094.94;5070458;28;20104;-74
2023/07/04 00:16:34;;;;;;;35.15;8.00;;;;;;;18.03;67.52;96107.50;5071545;28;20090;-74
2023/07/04 00:19:03;;;;;;;38.70;8.48;;;;;;;17.97;68.39;96098.75;5070934;28;20047;-74
2023/07/04 00:21:30;;;;;;;40.75;7.85;;;;;;;17.90;68.94;96096.69;5056467;28;20044;-74
2023/07/04 00:23:58;;;;;;;29.85;7.90;;;;;;;17.95;68.47;96095.56;5075893;28;20040;-74
2023/07/04 00:26:26;;;;;;;29.17;7.78;;;;;;;18.05;68.37;96091.38;5074845;28;20042;-74
2023/07/04 00:28:53;;;;;;;30.65;8.05;;;;;;;18.12;67.43;96089.53;5075059;28;20048;-74
2023/07/04 00:31:23;;;;;;;28.70;6.90;;;;;;;18.21;67.81;96084.50;5074519;28;20055;-75
2023/07/04 00:33:49;;;;;;;33.47;7.50;;;;;;;18.12;66.63;96094.25;5074927;28;20076;-75
2023/07/04 00:36:18;;;;;;;30.80;7.15;;;;;;;18.17;66.42;96091.97;5074994;28;20131;-74
2023/07/04 00:38:48;;;;;;;38.17;8.45;;;;;;;18.14;66.86;96091.91;5076937;28;20044;-74
2023/07/04 00:41:20;;;;;;;42.05;8.10;;;;;;;18.04;67.14;96087.03;5076153;28;20048;-74
2023/07/04 00:43:56;;;;;;;26.63;6.88;;;;;;;17.92;67.92;96083.34;5077161;28;20044;-74
2023/07/04 00:46:28;;;;;;;44.65;8.20;;;;;;;17.97;67.89;96087.75;5076169;28;20045;-74
2023/07/04 00:48:57;;;;;;;24.20;7.20;;;;;;;17.99;67.98;96096.41;5076475;28;20483;-74
2023/07/04 00:51:24;;;;;;;22.40;6.82;;;;;;;18.13;67.64;96084.81;5073868;28;20041;-74
2023/07/04 00:53:54;;;;;;;20.65;6.22;;;;;;;18.24;67.41;96096.75;5074700;28;20539;-74
2023/07/04 00:56:24;;;;;;;27.92;7.20;;;;;;;18.24;67.17;96105.81;5075873;28;20043;-74
2023/07/04 00:58:51;;;;;;;29.25;7.50;;;;;;;18.20;67.23;96106.94;5076810;28;20040;-74
2023/07/04 01:01:19;;;;;;;31.17;7.40;;;;;;;18.17;67.29;96104.94;5076380;28;20045;-74
2023/07/04 01:03:47;;;;;;;32.65;7.70;;;;;;;18.19;67.17;96106.16;5076329;28;20495;-74
2023/07/04 01:06:21;;;;;;;35.92;7.25;;;;;;;18.04;66.97;96104.38;5073655;28;20049;-74
2023/07/04 01:08:55;;;;;;;41.15;8.18;;;;;;;18.06;66.77;96106.75;5073124;28;20064;-73
2023/07/04 01:11:30;;;;;;;33.13;6.85;;;;;;;18.06;66.94;96118.56;5072257;28;20052;-74
2023/07/04 01:13:57;;;;;;;42.67;7.07;;;;;;;18.02;67.00;96116.94;5072875;28;20045;-74
2023/07/04 01:16:24;;;;;;;23.35;6.28;;;;;;;18.07;66.96;96120.16;5072521;28;20041;-74
2023/07/04 01:18:54;;;;;;;34.63;7.80;;;;;;;18.08;67.00;96131.97;5073561;28;20055;-74
2023/07/04 01:21:24;;;;;;;25.10;6.72;;;;;;;18.02;67.11;96145.28;5072232;28;20041;-74
2023/07/04 01:24:03;;;;;;;31.67;7.20;;;;;;;18.18;66.96;96143.16;5073236;28;20086;-74
2023/07/04 01:26:34;;;;;;;41.75;6.22;;;;;;;18.30;66.64;96144.88;5072306;28;20036;-74
2023/07/04 01:29:04;;;;;;;24.83;6.20;;;;;;;18.39;66.44;96139.88;5073078;28;20048;-74
2023/07/04 01:31:31;;;;;;;34.83;6.57;;;;;;;18.39;66.27;96148.16;5072126;28;20480;-74
2023/07/04 01:34:00;;;;;;;11.13;6.07;;;;;;;18.15;66.04;96152.16;5073107;28;20047;-74
2023/07/04 01:36:30;;;;;;;11.25;5.60;;;;;;;18.09;66.42;96152.84;5072333;28;20136;-74
2023/07/04 01:38:57;;;;;;;34.58;6.43;;;;;;;18.10;66.62;96151.69;5072538;28;20132;-74
2023/07/04 01:41:24;;;;;;;41.90;6.45;;;;;;;17.92;67.81;96157.72;5071657;28;20051;-74
2023/07/04 01:43:56;;;;;;;11.57;5.85;;;;;;;17.85;68.52;96146.56;5072596;28;20045;-74
2023/07/04 01:46:24;;;;;;;17.88;6.70;;;;;;;17.91;69.00;96150.63;5071856;28;20048;-74
2023/07/04 01:48:51;;;;;;;40.63;6.22;;;;;;;18.01;70.44;96151.97;5052709;28;20420;-75
2023/07/04 01:51:23;;;;;;;37.17;7.15;;;;;;;17.93;71.21;96159.31;5052170;28;20041;-74
2023/07/04 01:53:50;;;;;;;10.88;5.15;;;;;;;17.86;71.08;96164.72;5072388;28;20040;-74
2023/07/04 01:56:16;;;;;;;13.07;5.78;;;;;;;17.68;71.67;96156.13;5071705;28;20045;-74
2023/07/04 01:58:43;;;;;;;20.40;6.00;;;;;;;17.67;71.62;96162.00;5072466;28;20044;-74
2023/07/04 02:01:11;;;;;;;39.95;6.47;;;;;;;17.65;71.36;96172.59;5071998;28;20036;-74
2023/07/04 02:03:37;;;;;;;30.80;5.93;;;;;;;17.68;71.92;96174.59;5072372;28;20037;-74
2023/07/04 02:06:04;;;;;;;47.72;6.60;;;;;;;17.68;72.54;96172.66;5071694;28;20051;-75
2023/07/04 02:08:30;;;;;;;24.25;5.80;;;;;;;17.68;72.14;96177.34;5071087;28;20698;-74
2023/07/04 02:10:57;;;;;;;10.55;5.35;;;;;;;17.73;72.21;96179.84;5071555;28;20048;-74
2023/07/04 02:13:24;;;;;;;11.55;4.72;;;;;;;17.65;73.59;96187.16;5071442;28;20048;-74
2023/07/04 02:15:50;;;;;;;20.65;5.53;;;;;;;17.68;74.10;96180.13;5072085;28;20055;-74
2023/07/04 02:18:18;;;;;;;10.38;5.70;;;;;;;17.58;75.01;96187.03;5071637;28;20041;-74
2023/07/04 02:20:45;;;;;;;29.90;7.60;;;;;;;17.48;76.53;96182.91;5071655;28;20067;-74
2023/07/04 02:23:11;;;;;;;11.07;5.35;;;;;;;17.54;75.67;96185.38;5071036;28;20036;-74
2023/07/04 02:25:40;;;;;;;10.25;4.95;;;;;;;17.58;75.56;96187.03;5071918;28;20422;-74
2023/07/04 02:28:07;;;;;;;13.90;5.20;;;;;;;17.54;74.91;96182.63;5071336;28;20044;-74
2023/07/04 02:30:33;;;;;;;11.48;4.85;;;;;;;17.59;74.10;96187.81;5071801;28;20048;-74
2023/07/04 02:33:00;;;;;;;10.35;5.57;;;;;;;17.57;74.68;96181.91;5071702;28;20044;-74
2023/07/04 02:35:29;;;;;;;8.95;4.78;;;;;;;17.46;75.55;96187.22;5071313;28;20491;-74
2023/07/04 02:37:55;;;;;;;11.07;4.50;;;;;;;17.50;75.43;96198.31;5071435;28;20511;-74
2023/07/04 02:40:22;;;;;;;9.68;5.10;;;;;;;17.43;75.28;96196.19;5071242;28;20144;-74
2023/07/04 02:42:48;;;;;;;13.00;5.45;;;;;;;17.37;75.89;96198.47;5071396;28;20036;-74
2023/07/04 02:45:15;;;;;;;9.40;4.88;;;;;;;17.32;75.73;96190.50;5070588;28;20420;-75
2023/07/04 02:47:42;;;;;;;7.78;4.70;;;;;;;17.33;75.44;96186.59;5071399;28;20048;-74
2023/07/04 02:50:09;;;;;;;9.95;4.85;;;;;;;16.98;77.82;96185.94;5071012;28;20048;-74
2023/07/04 02:52:37;;;;;;;10.18;5.13;;;;;;;16.90;78.89;96188.53;5070961;28;20045;-74
2023/07/04 02:55:03;;;;;;;10.70;5.03;;;;;;;16.93;78.19;96187.81;5071003;28;20045;-74
2023/07/04 02:57:30;;;;;;;12.00;5.20;;;;;;;16.88;79.23;96201.84;5071304;28;20583;-74
2023/07/04 02:59:59;;;;;;;8.43;4.65;;;;;;;17.03;77.27;96204.91;5071149;28;20044;-75
2023/07/04 03:02:25;;;;;;;10.20;5.13;;;;;;;16.89;78.82;96211.69;5070560;28;20047;-74
2023/07/04 03:04:52;;;;;;;11.55;5.00;;;;;;;16.70;79.96;96212.47;5070928;28;20126;-74
2023/07/04 03:07:18;;;;;;;9.43;5.20;;;;;;;16.67;79.89;96209.63;5070535;28;20044;-74
2023/07/04 03:09:46;;;;;;;10.30;4.68;;;;;;;16.74;79.97;96209.81;5071175;28;20095;-75
2023/07/04 03:12:13;;;;;;;11.25;5.47;;;;;;;16.77;80.20;96203.59;5070091;28;20044;-74
2023/07/04 03:14:39;;;;;;;12.57;5.18;;;;;;;16.70;80.56;96208.91;5070687;28;20043;-74
2023/07/04 03:17:06;;;;;;;30.30;5.47;;;;;;;16.82;80.20;96210.75;5070467;28;20522;-74
2023/07/04 03:19:32;;;;;;;9.75;4.93;;;;;;;16.84;79.69;96208.44;5070326;28;20049;-74
2023/07/04 03:21:59;;;;;;;13.93;5.00;;;;;;;16.70;80.74;96197.91;5069857;28;20045;-74
2023/07/04 03:24:25;;;;;;;13.00;5.05;;;;;;;16.80;80.20;96197.34;5070577;28;20044;-74
2023/07/04 03:26:53;;;;;;;7.00;4.00;;;;;;;16.85;80.41;96204.53;5070673;28;20467;-74
2023/07/04 03:29:20;;;;;;;14.05;5.00;;;;;;;16.73;81.06;96197.22;5070243;28;20051;-74
2023/07/04 03:31:46;;;;;;;48.28;6.40;;;;;;;16.72;81.52;96195.63;5070398;28;20139;-75
2023/07/04 03:34:12;;;;;;;29.60;5.15;;;;;;;16.81;81.04;96204.47;5070349;28;20044;-74
2023/07/04 03:36:39;;;;;;;44.92;5.93;;;;;;;16.83;80.79;96204.91;5070448;28;20059;-74
2023/07/04 03:39:06;;;;;;;32.05;5.00;;;;;;;16.85;80.81;96205.31;5070341;28;20492;-75
2023/07/04 03:41:33;;;;;;;34.50;5.00;;;;;;;16.79;81.39;96212.28;5070531;28;20124;-74
2023/07/04 03:44:01;;;;;;;43.72;6.53;;;;;;;16.77;82.07;96220.09;5070301;28;20052;-74
2023/07/04 03:46:28;;;;;;;24.63;4.45;;;;;;;16.79;81.75;96217.78;5069642;28;20060;-74
2023/07/04 03:48:54;;;;;;;15.52;4.43;;;;;;;16.85;81.24;96219.06;5070375;28;20491;-74
2023/07/04 03:51:21;;;;;;;8.15;4.03;;;;;;;16.83;81.09;96218.66;5069738;28;20047;-74
2023/07/04 03:53:48;;;;;;;7.93;4.10;;;;;;;16.81;81.13;96209.16;5070333;28;20036;-74
2023/07/04 03:56:15;;;;;;;7.32;4.07;;;;;;;16.72;81.40;96205.84;5070085;28;20491;-74
2023/07/04 03:58:42;;;;;;;8.57;4.53;;;;;;;16.53;82.53;96215.63;5070037;28;20045;-74
2023/07/04 04:01:10;;;;;;;7.95;4.30;;;;;;;16.47;83.20;96222.56;5069286;28;20048;-75
2023/07/04 04:03:37;;;;;;;12.75;4.55;;;;;;;16.50;83.04;96221.06;5070143;28;20064;-74
2023/07/04 04:06:04;;;;;;;21.83;4.30;;;;;;;16.57;82.74;96232.19;5069795;28;20082;-74
2023/07/04 04:08:31;;;;;;;29.95;4.85;;;;;;;16.56;83.86;96234.16;5070086;28;20196;-75
2023/07/04 04:10:58;;;;;;;22.23;4.68;;;;;;;16.49;83.90;96233.19;5070153;28;20044;-74
2023/07/04 04:13:24;;;;;;;13.90;5.43;;;;;;;16.41;85.04;96240.50;5069594;28;20048;-74
2023/07/04 04:15:51;;;;;;;10.50;4.65;;;;;;;16.46;85.22;96242.97;5069726;28;20618;-74
2023/07/04 04:18:20;;;;;;;12.38;4.45;;;;;;;16.39;86.23;96253.78;5069072;28;20507;-74
2023/07/04 04:20:46;;;;;;;12.70;5.22;;;;;;;16.24;87.09;96247.16;5069808;28;20044;-74
2023/07/04 04:23:13;;;;;;;8.82;4.20;;;;;;;16.23;87.52;96245.56;5069532;28;20063;-74
2023/07/04 04:25:39;;;;;;;10.90;4.70;;;;;;;16.18;88.14;96243.09;5069945;28;20049;-74
2023/07/04 04:28:06;;;;;;;14.93;4.50;;;;;;;16.04;89.50;96253.75;5069491;28;20040;-74
2023/07/04 04:30:33;;;;;;;9.38;4.47;;;;;;;15.97;89.89;96256.31;5069862;28;20048;-75
2023/07/04 04:33:01;;;;;;;10.15;4.10;;;;;;;15.98;90.93;96257.94;5069138;28;20086;-74
2023/07/04 04:35:29;;;;;;;8.68;4.35;;;;;;;15.95;91.31;96266.84;5069916;28;20571;-75
2023/07/04 04:37:56;;;;;;;8.13;3.85;;;;;;;15.92;91.32;96257.38;5069731;28;20051;-74
2023/07/04 04:40:22;;;;;;;8.90;4.40;;;;;;;16.02;91.25;96256.84;5069416;28;20053;-74
2023/07/04 04:42:56;;;;;;;10.48;4.43;;;;;;;16.12;90.81;96261.78;5069089;28;20396;-74
2023/07/04 04:45:23;;;;;;;7.60;3.80;;;;;;;16.24;90.75;96260.13;5065579;28;20113;-75
2023/07/04 04:47:53;;;;;;;10.38;6.07;;;;;;;16.35;90.58;96267.44;5069466;28;20044;-74
2023/07/04 04:50:20;;;;;;;8.57;3.80;;;;;;;16.42;89.61;96270.34;5069309;28;20049;-74
2023/07/04 04:52:48;;;;;;;9.50;4.55;;;;;;;16.34;89.94;96276.84;5069744;28;20055;-74
2023/07/04 04:55:15;;;;;;;17.08;4.95;;;;;;;16.17;91.14;96274.47;5069215;28;20174;-74
2023/07/04 04:57:43;;;;;;;7.78;4.53;;;;;;;16.36;90.46;96277.28;5069043;28;20044;-74
2023/07/04 05:00:12;;;;;;;7.75;4.47;;;;;;;16.48;90.24;96267.31;5069237;28;20041;-74
2023/07/04 05:02:39;;;;;;;10.23;4.63;;;;;;;16.38;90.75;96279.66;5069262;28;20051;-74
2023/07/04 05:05:06;;;;;;;9.82;4.60;;;;;;;16.55;89.74;96278.47;5069208;28;20518;-75
2023/07/04 05:07:33;;;;;;;8.13;4.20;;;;;;;16.64;89.38;96276.31;5069400;28;20048;-74
2023/07/04 05:10:02;;;;;;;8.57;3.65;;;;;;;16.64;88.84;96276.31;5069699;28;20064;-74
2023/07/04 05:12:29;;;;;;;12.02;4.63;;;;;;;16.52;89.24;96290.19;5069190;28;20465;-74
2023/07/04 05:14:55;;;;;;;9.63;4.25;;;;;;;16.35;90.07;96286.69;5069247;28;20036;-74
2023/07/04 05:17:23;;;;;;;8.57;4.47;;;;;;;16.26;91.35;96288.81;5068697;28;20048;-74
2023/07/04 05:19:50;;;;;;;9.95;4.40;;;;;;;16.25;92.24;96289.97;5069052;28;20049;-74
2023/07/04 05:22:17;;;;;;;13.38;4.90;;;;;;;16.25;92.84;96292.72;5068367;28;20056;-74
2023/07/04 05:24:43;;;;;;;6.40;3.92;;;;;;;16.44;92.40;96294.72;5069427;28;20044;-74
2023/07/04 05:27:11;;;;;;;6.93;3.88;;;;;;;16.52;91.59;96296.50;5068603;28;20048;-74
2023/07/04 05:29:37;;;;;;;9.82;4.47;;;;;;;16.56;90.97;96296.59;5069554;28;20043;-74
2023/07/04 05:32:05;;;;;;;7.13;3.90;;;;;;;16.70;90.83;96291.38;5068654;28;20516;-74
2023/07/04 05:34:31;;;;;;;6.85;3.63;;;;;;;16.69;89.60;96292.53;5069035;28;20429;-74
2023/07/04 05:36:58;;;;;;;9.13;3.47;;;;;;;16.62;90.05;96295.16;5069337;28;20044;-74
2023/07/04 05:39:24;;;;;;;6.63;3.20;;;;;;;16.66;89.08;96285.03;5068757;28;20044;-74
2023/07/04 05:41:50;;;;;;;8.25;3.63;;;;;;;16.61;90.16;96293.56;5069330;28;20045;-74
2023/07/04 05:44:19;;;;;;;5.53;3.08;;;;;;;16.57;89.94;96287.19;5070603;28;20047;-74
2023/07/04 05:46:47;;;;;;;6.55;3.22;;;;;;;16.55;89.90;96294.97;5073057;28;20509;-74
2023/07/04 05:49:13;;;;;;;6.03;3.05;;;;;;;16.49;90.19;96288.94;5072494;28;20044;-74
2023/07/04 05:51:40;;;;;;;6.57;2.70;;;;;;;16.58;90.38;96283.25;5072858;28;20048;-74
2023/07/04 05:54:06;;;;;;;7.78;2.97;;;;;;;16.60;90.07;96284.53;5072649;28;20044;-74
2023/07/04 05:56:33;;;;;;;5.63;3.00;;;;;;;16.69;90.31;96285.09;5073075;28;20487;-74
2023/07/04 05:59:01;;;;;;;6.05;2.80;;;;;;;16.79;88.37;96289.25;5072646;28;20407;-74
2023/07/04 06:01:32;;;;;;;6.18;2.47;;;;;;;16.80;86.33;96285.34;5072373;28;20047;-75
2023/07/04 06:04:00;;;;;;;4.95;2.42;;;;;;;16.83;86.27;96289.34;5072781;28;20531;-74
2023/07/04 06:06:31;;;;;;;5.47;2.40;;;;;;;17.04;87.15;96286.25;5072209;28;20059;-74
2023/07/04 06:08:59;;;;;;;5.45;2.60;;;;;;;17.21;84.36;96288.56;5072882;28;20048;-74
2023/07/04 06:11:30;;;;;;;6.22;1.92;;;;;;;17.27;82.06;96291.81;5071979;28;20044;-74
2023/07/04 06:13:57;;;;;;;6.80;2.50;;;;;;;17.31;82.96;96301.75;5072896;28;20055;-74
2023/07/04 06:16:23;;;;;;;7.93;2.90;;;;;;;17.33;80.83;96304.94;5072565;28;20044;-75
2023/07/04 06:18:51;;;;;;;5.63;2.65;;;;;;;17.42;82.10;96305.50;5072542;28;20040;-73
2023/07/04 06:21:20;;;;;;;4.07;2.20;;;;;;;17.53;82.79;96310.44;5071432;28;20408;-75
2023/07/04 06:23:47;;;;;;;4.68;2.42;;;;;;;17.65;82.66;96310.28;5072147;28;20040;-74
2023/07/04 06:26:14;;;;;;;4.25;2.17;;;;;;;17.75;81.51;96306.97;5071458;28;20518;-75
2023/07/04 06:28:42;;;;;;;5.15;2.17;;;;;;;17.80;81.84;96298.41;5072547;28;20048;-74
2023/07/04 06:31:12;;;;;;;4.90;1.90;;;;;;;18.04;83.00;96296.44;5071417;28;20040;-75
2023/07/04 06:33:38;;;;;;;7.82;1.80;;;;;;;18.12;79.52;96301.72;5072138;28;20044;-75
2023/07/04 06:36:08;;;;;;;7.32;1.90;;;;;;;18.29;78.94;96297.66;5071562;28;20040;-74
2023/07/04 06:38:35;;;;;;;4.28;1.88;;;;;;;18.25;77.77;96294.03;5071770;28;20040;-74
2023/07/04 06:41:03;;;;;;;2.88;1.80;;;;;;;18.27;75.36;96294.47;5070982;28;20048;-75
2023/07/04 06:43:32;;;;;;;3.58;1.77;;;;;;;18.22;73.53;96292.03;5071896;28;20045;-75
2023/07/04 06:45:58;;;;;;;3.15;1.60;;;;;;;18.18;74.64;96296.69;5071631;28;20040;-75
2023/07/04 06:48:27;;;;;;;5.82;2.10;;;;;;;18.12;75.29;96298.16;5071536;28;20040;-75
2023/07/04 06:50:57;;;;;;;3.55;1.92;;;;;;;18.20;75.01;96294.34;5071601;28;20041;-74
2023/07/04 06:53:26;;;;;;;4.20;2.03;;;;;;;18.17;73.89;96295.09;5057616;28;20044;-74
2023/07/04 06:55:52;;;;;;;4.07;1.95;;;;;;;18.18;72.78;96302.19;5072321;28;20127;-74
2023/07/04 06:58:19;;;;;;;4.00;1.67;;;;;;;18.18;72.71;96294.72;5072886;28;20049;-74
2023/07/04 07:00:45;;;;;;;4.95;1.73;;;;;;;18.29;71.43;96296.88;5073100;28;20044;-75
2023/07/04 07:03:12;;;;;;;4.05;1.80;;;;;;;18.34;70.51;96297.34;5075597;28;20067;-75
2023/07/04 07:05:38;;;;;;;4.15;1.80;;;;;;;18.37;69.07;96304.84;5078956;28;20041;-75
2023/07/04 07:08:05;;;;;;;2.85;1.58;;;;;;;18.37;68.51;96304.84;5078615;28;20040;-75
2023/07/04 07:10:36;;;;;;;2.10;1.25;;;;;;;18.48;69.65;96305.06;5076272;28;20049;-75
2023/07/04 07:13:03;;;;;;;3.38;1.40;;;;;;;18.63;70.21;96303.28;5076189;28;20071;-76
2023/07/04 07:15:29;;;;;;;4.63;1.77;;;;;;;18.73;68.06;96306.22;5078683;28;20056;-74
2023/07/04 07:17:56;;;;;;;2.97;1.40;;;;;;;18.82;68.58;96303.22;5077247;28;20048;-74
2023/07/04 07:20:22;;;;;;;2.95;1.50;;;;;;;18.88;67.47;96303.69;5080149;28;20045;-74
2023/07/04 07:22:49;;;;;;;3.35;1.60;;;;;;;18.98;66.33;96303.81;5080739;28;20047;-75
2023/07/04 07:25:15;;;;;;;3.42;1.58;;;;;;;19.18;68.06;96304.50;5075836;28;20048;-75
2023/07/04 07:27:43;;;;;;;2.97;1.50;;;;;;;19.11;65.71;96303.63;5076683;28;20051;-75
2023/07/04 07:30:11;;;;;;;3.70;1.80;;;;;;;19.12;65.03;96307.97;5056166;28;20092;-74
2023/07/04 07:32:37;;;;;;;4.43;1.80;;;;;;;19.36;67.52;96310.22;5076295;28;20043;-75
2023/07/04 07:35:04;;;;;;;2.50;1.52;;;;;;;19.35;63.31;96307.84;5076806;28;20052;-75
2023/07/04 07:37:31;;;;;;;2.83;1.73;;;;;;;19.25;63.13;96314.81;5077492;28;20040;-74
2023/07/04 07:39:58;;;;;;;7.18;2.20;;;;;;;19.27;64.85;96312.50;5077894;28;20040;-75
2023/07/04 07:42:24;;;;;;;3.90;1.50;;;;;;;19.48;64.80;96312.75;5078031;28;20040;-75
2023/07/04 07:44:52;;;;;;;3.17;1.40;;;;;;;19.68;61.63;96315.34;5078164;28;20040;-75
2023/07/04 07:47:19;;;;;;;6.32;1.88;;;;;;;19.80;60.44;96307.59;5074583;28;20040;-76
2023/07/04 07:49:46;;;;;;;2.67;1.42;;;;;;;20.04;61.20;96310.97;5076304;28;20090;-75
2023/07/04 07:52:12;;;;;;;4.72;1.50;;;;;;;20.11;60.03;96304.75;5075082;28;20048;-75
2023/07/04 07:54:38;;;;;;;5.35;1.70;;;;;;;20.06;60.15;96314.97;5071478;28;20045;-74
2023/07/04 07:57:06;;;;;;;4.88;1.77;;;;;;;19.91;61.83;96307.72;5070091;28;20044;-75
2023/07/04 07:59:33;;;;;;;4.43;1.60;;;;;;;19.97;59.00;96306.19;5070229;28;20055;-74
2023/07/04 08:02:01;;;;;;;2.30;1.38;;;;;;;20.17;59.81;96304.00;5070140;28;20717;-74
2023/07/04 08:04:28;;;;;;;2.95;1.67;;;;;;;20.35;59.69;96293.09;5070216;28;20433;-75
2023/07/04 08:06:54;;;;;;;2.30;1.35;;;;;;;20.38;59.65;96292.34;5069458;28;20051;-74
2023/07/04 08:09:21;;;;;;;4.20;1.45;;;;;;;20.30;57.32;96290.66;5069799;28;20071;-75
2023/07/04 08:11:49;;;;;;;3.45;1.65;;;;;;;20.06;59.43;96292.84;5070087;28;20518;-75
2023/07/04 08:14:16;;;;;;;3.22;1.60;;;;;;;20.04;58.30;96300.72;5069468;28;20102;-74
2023/07/04 08:16:45;;;;;;;4.25;1.77;;;;;;;20.04;56.71;96295.19;5069267;28;20044;-74
2023/07/04 08:19:15;;;;;;;3.47;1.50;;;;;;;20.03;57.24;96299.13;5057422;28;20412;-74
2023/07/04 08:21:41;;;;;;;2.28;1.40;;;;;;;20.06;56.55;96297.59;5069677;28;20408;-73
2023/07/04 08:24:12;;;;;;;4.97;1.55;;;;;;;20.34;55.40;96302.56;5069732;28;20404;-74
2023/07/04 08:26:39;;;;;;;5.25;1.67;;;;;;;20.53;56.64;96293.28;5070637;28;20040;-74
2023/07/04 08:29:07;;;;;;;4.35;1.45;;;;;;;20.54;55.30;96301.19;5069766;28;20043;-75
2023/07/04 08:31:37;;;;;;;4.03;1.83;;;;;;;20.66;56.32;96307.56;5069871;28;20041;-74
2023/07/04 08:34:05;;;;;;;4.93;1.50;;;;;;;20.90;54.91;96301.41;5071019;28;20045;-74
2023/07/04 08:36:33;;;;;;;3.58;1.70;;;;;;;20.87;53.02;96306.91;5070711;28;20045;-75
2023/07/04 08:39:00;;;;;;;4.22;1.67;;;;;;;20.70;54.22;96305.63;5070655;28;20526;-74
2023/07/04 08:41:42;;;;;;;5.40;1.60;;;;;;;21.03;55.37;96305.44;5069280;28;20577;-74
2023/07/04 08:44:13;;;;;;;3.05;1.65;;;;;;;21.26;53.31;96302.41;5069648;28;20041;-75
2023/07/04 08:46:43;;;;;;;3.05;1.67;;;;;;;21.43;53.52;96300.91;5062464;28;20040;-74
2023/07/04 08:49:23;;;;;;;4.57;1.70;;;;;;;21.72;52.51;96301.03;5069471;28;20428;-75
2023/07/04 08:51:56;;;;;;;4.47;1.58;;;;;;;21.51;51.11;96308.06;5069858;28;20044;-74
2023/07/04 08:54:23;;;;;;;3.17;1.50;;;;;;;21.54;53.26;96300.94;5069019;28;20052;-74
2023/07/04 08:56:51;;;;;;;5.25;1.73;;;;;;;21.54;53.90;96298.97;5069853;28;20055;-74
2023/07/04 08:59:24;;;;;;;3.65;1.73;;;;;;;21.19;51.49;96304.31;5069166;28;20044;-75
2023/07/04 09:01:59;;;;;;;;;;;;;;;21.06;53.31;96299.13;5069918;28;20045;-75
2023/07/04 09:04:37;;;;;;;3.70;1.90;;;;;;;21.30;55.34;96303.25;5069243;28;19921;-75
2023/07/04 09:07:13;;;;;;;3.03;1.40;;;;;;;21.12;52.31;96307.88;5069230;28;20048;-75
2023/07/04 09:09:49;;;;;;;2.83;1.65;;;;;;;20.94;53.91;96299.47;5069610;28;20044;-74
2023/07/04 09:12:16;;;;;;;3.50;1.73;;;;;;;20.92;54.02;96306.56;5068920;28;20041;-74
2023/07/04 09:14:49;;;;;;;4.30;1.70;;;;;;;20.99;53.73;96303.84;5069690;28;20048;-74
2023/07/04 09:17:27;;;;;;;3.05;1.80;;;;;;;21.03;53.99;96302.66;5069054;28;20052;-74
2023/07/04 09:19:55;;;;;;;7.50;1.77;;;;;;;21.16;54.85;96302.34;5072568;28;20203;-74
2023/07/04 09:22:23;;;;;;;3.35;1.77;;;;;;;21.09;55.27;96306.69;5072845;28;20066;-75
2023/07/04 09:24:49;;;;;;;4.13;1.77;;;;;;;21.01;54.66;96299.50;5073317;28;20559;-74
2023/07/04 09:27:17;;;;;;;5.22;1.85;;;;;;;21.05;54.41;96303.09;5072970;28;20053;-74
2023/07/04 09:29:45;;;;;;;5.80;2.17;;;;;;;21.02;55.03;96303.06;5073409;28;20060;-75
2023/07/04 09:32:12;;;;;;;4.00;1.77;;;;;;;21.17;54.54;96303.94;5072189;28;20131;-74
2023/07/04 09:34:47;;;;;;;6.43;1.50;;;;;;;21.21;54.90;96304.75;5073197;28;20134;-74
2023/07/04 09:37:15;;;;;;;2.97;1.52;;;;;;;21.33;54.30;96307.19;5072070;28;20045;-75
2023/07/04 09:39:48;;;;;;;3.97;1.42;;;;;;;21.30;53.44;96302.47;5073178;28;20044;-74
2023/07/04 09:42:16;;;;;;;2.88;1.67;;;;;;;21.35;53.99;96307.59;5072163;28;20052;-75
2023/07/04 09:44:44;;;;;;;2.85;1.73;;;;;;;21.48;55.51;96297.75;5072617;28;20575;-74
2023/07/04 09:47:21;;;;;;;3.50;1.95;;;;;;;21.35;53.86;96302.06;5072034;28;20037;-75
2023/07/04 09:49:48;;;;;;;4.13;1.63;;;;;;;21.55;55.36;96305.31;5072570;28;20049;-74
2023/07/04 09:52:26;;;;;;;4.15;1.80;;;;;;;21.53;53.29;96310.44;5071905;28;20127;-74
2023/07/04 09:55:09;;;;;;;4.07;1.75;;;;;;;21.70;54.46;96300.59;5072976;28;20044;-74
2023/07/04 09:57:36;;;;;;;2.97;1.80;;;;;;;21.99;56.87;96304.25;5072205;28;20487;-74
2023/07/04 10:00:21;;;;;;;3.22;1.70;;;;;;;22.09;54.13;96293.16;5071918;28;20052;-74
2023/07/04 10:02:52;;;;;;;4.47;1.85;;;;;;;22.08;54.46;96308.22;5072341;28;20053;-75
2023/07/04 10:05:29;;;;;;;2.88;1.60;;;;;;;22.07;54.89;96301.06;5072584;28;20053;-74
2023/07/04 10:08:07;;;;;;;7.88;2.00;;;;;;;22.04;53.19;96304.66;5072352;28;20197;-75
2023/07/04 10:10:38;;;;;;;2.97;1.80;;;;;;;21.60;55.01;96305.72;5072320;28;20055;-74
2023/07/04 10:13:07;;;;;;;3.60;1.73;;;;;;;21.66;57.63;96297.03;5071542;28;20496;-74
2023/07/04 10:15:41;;;;;;;3.22;1.48;;;;;;;21.83;55.99;96297.09;5072035;28;20094;-75
2023/07/04 10:18:12;;;;;;;4.93;1.50;;;;;;;22.16;56.73;96286.06;5071556;28;20055;-75
2023/07/04 10:20:41;;;;;;;3.83;1.70;;;;;;;22.45;53.84;96293.22;5072492;28;20609;-75
2023/07/04 10:23:08;;;;;;;3.65;2.13;;;;;;;22.30;53.13;96286.88;5071758;28;20063;-74
2023/07/04 10:25:36;;;;;;;3.38;2.08;;;;;;;22.29;52.93;96278.94;5072299;28;20403;-74
2023/07/04 10:28:13;;;;;;;3.42;1.75;;;;;;;22.03;52.74;96294.75;5071612;28;20044;-75
2023/07/04 10:30:42;;;;;;;4.00;1.90;;;;;;;21.97;53.70;96279.66;5070782;28;20040;-74
2023/07/04 10:33:16;;;;;;;6.53;1.85;;;;;;;22.26;53.95;96274.19;5071558;28;20407;-75
2023/07/04 10:35:45;;;;;;;4.22;1.65;;;;;;;22.19;52.46;96279.75;5072271;28;20044;-74
2023/07/04 10:38:25;;;;;;;4.05;1.73;;;;;;;22.33;51.89;96260.31;5071221;28;20060;-75
2023/07/04 10:40:54;;;;;;;7.55;1.90;;;;;;;22.59;53.48;96259.88;5064870;28;20411;-75
2023/07/04 10:43:30;;;;;;;2.83;1.70;;;;;;;22.90;52.02;96257.47;5071442;28;20484;-75
2023/07/04 10:45:58;;;;;;;4.13;1.70;;;;;;;22.75;48.79;96258.69;5067443;28;20094;-74
2023/07/04 10:48:29;;;;;;;3.60;1.98;;;;;;;22.69;50.30;96263.84;5070761;28;20106;-74
2023/07/04 10:51:00;;;;;;;5.22;2.22;;;;;;;22.89;49.19;96250.34;5071629;28;20044;-75
2023/07/04 10:53:27;;;;;;;3.47;1.80;;;;;;;23.21;50.73;96249.44;5071518;28;20556;-75
2023/07/04 10:56:00;;;;;;;3.50;1.80;;;;;;;23.50;48.25;96250.91;5071302;28;20051;-74
2023/07/04 10:58:33;;;;;;;4.35;1.80;;;;;;;23.61;48.16;96246.09;5071318;28;20511;-74
2023/07/04 11:01:05;;;;;;;4.47;1.95;;;;;;;23.82;49.21;96241.63;5072452;28;20500;-75
2023/07/04 11:03:41;;;;;;;2.83;1.90;;;;;;;24.05;48.11;96250.19;5071460;28;20066;-74
2023/07/04 11:06:11;;;;;;;4.95;2.15;;;;;;;24.02;47.22;96253.81;5072431;28;20047;-75
2023/07/04 11:08:38;;;;;;;4.18;2.17;;;;;;;23.83;48.49;96246.78;5072568;28;20047;-74
2023/07/04 11:11:09;;;;;;;6.45;2.25;;;;;;;23.90;47.67;96251.50;5072131;28;20114;-74
2023/07/04 11:13:45;;;;;;;6.32;2.10;;;;;;;23.85;44.68;96249.94;5073092;28;20047;-75
2023/07/04 11:16:12;;;;;;;4.32;2.17;;;;;;;23.63;44.74;96249.28;5075134;28;20050;-74
2023/07/04 11:18:41;;;;;;;4.82;2.08;;;;;;;23.47;44.99;96246.16;5074178;28;20048;-75
2023/07/04 11:21:14;;;;;;;4.68;2.30;;;;;;;23.47;47.98;96245.38;5075586;28;20056;-75
2023/07/04 11:23:49;;;;;;;7.88;2.75;;;;;;;23.70;46.68;96245.69;5074830;28;20037;-74
2023/07/04 11:26:19;;;;;;;4.28;2.20;;;;;;;24.06;47.17;96251.75;5072058;28;20044;-74
2023/07/04 11:28:48;;;;;;;8.93;2.60;;;;;;;24.20;46.90;96237.75;5072347;28;20055;-75
2023/07/04 11:31:21;;;;;;;7.47;2.55;;;;;;;24.17;43.87;96243.34;5071944;28;20048;-75
2023/07/04 11:34:19;;;;;;;6.35;2.45;;;;;;;23.91;45.04;96239.19;5072926;28;20055;-74
2023/07/04 11:36:50;;;;;;;7.07;2.67;;;;;;;23.84;45.40;96240.00;4992471;28;20050;-74
2023/07/04 11:39:30;;;;;;;5.88;2.75;;;;;;;24.06;45.46;96235.06;5042535;28;20721;-75